sensor_id;sensor_type;location;lat;lon;timestamp;P1;durP1;ratioP1;P2;durP2;ratioP2
703;SDS011;335;48.694;9.120;2023-06-14T00:00:33;5.30;;;4.90;;
703;SDS011;335;48.694;9.120;2023-06-14T00:03:05;6.13;;;4.27;;
703;SDS011;335;48.694;9.120;2023-06-14T00:05:31;4.37;;;4.10;;
703;SDS011;335;48.694;9.120;2023-06-14T00:07:58;4.87;;;4.20;;
703;SDS011;335;48.694;9.120;2023-06-14T00:10:25;4.37;;;4.07;;
703;SDS011;335;48.694;9.120;2023-06-14T00:12:52;4.80;;;4.37;;
703;SDS011;335;48.694;9.120;2023-06-14T00:15:17;4.40;;;4.10;;
703;SDS011;335;48.694;9.120;2023-06-14T00:17:42;4.90;;;4.60;;
703;SDS011;335;48.694;9.120;2023-06-14T00:20:12;5.10;;;4.80;;
703;SDS011;335;48.694;9.120;2023-06-14T00:22:37;5.13;;;4.63;;
703;SDS011;335;48.694;9.120;2023-06-14T00:25:03;5.57;;;5.07;;
703;SDS011;335;48.694;9.120;2023-06-14T00:27:30;5.10;;;4.70;;
703;SDS011;335;48.694;9.120;2023-06-14T00:29:55;4.23;;;3.93;;
703;SDS011;335;48.694;9.120;2023-06-14T00:32:23;4.40;;;4.10;;
703;SDS011;335;48.694;9.120;2023-06-14T00:34:50;4.00;;;3.73;;
703;SDS011;335;48.694;9.120;2023-06-14T00:37:16;4.67;;;4.37;;
703;SDS011;335;48.694;9.120;2023-06-14T00:39:42;4.83;;;4.53;;
703;SDS011;335;48.694;9.120;2023-06-14T00:42:07;4.43;;;4.13;;
703;SDS011;335;48.694;9.120;2023-06-14T00:44:32;4.80;;;4.40;;
703;SDS011;335;48.694;9.120;2023-06-14T00:46:58;4.50;;;4.20;;
703;SDS011;335;48.694;9.120;2023-06-14T00:49:23;4.73;;;4.33;;
703;SDS011;335;48.694;9.120;2023-06-14T00:51:48;4.00;;;3.80;;
703;SDS011;335;48.694;9.120;2023-06-14T00:54:14;4.70;;;4.37;;
703;SDS011;335;48.694;9.120;2023-06-14T00:56:39;4.00;;;3.73;;
703;SDS011;335;48.694;9.120;2023-06-14T00:59:05;5.10;;;4.70;;
703;SDS011;335;48.694;9.120;2023-06-14T01:01:31;4.57;;;4.27;;
703;SDS011;335;48.694;9.120;2023-06-14T01:03:59;4.60;;;4.40;;
703;SDS011;335;48.694;9.120;2023-06-14T01:09:10;4.90;;;4.60;;
703;SDS011;335;48.694;9.120;2023-06-14T01:14:23;5.00;;;4.60;;
703;SDS011;335;48.694;9.120;2023-06-14T01:16:49;4.63;;;4.23;;
703;SDS011;335;48.694;9.120;2023-06-14T01:19:18;4.90;;;4.50;;
703;SDS011;335;48.694;9.120;2023-06-14T01:21:44;4.50;;;4.13;;
703;SDS011;335;48.694;9.120;2023-06-14T01:24:09;5.13;;;3.80;;
703;SDS011;335;48.694;9.120;2023-06-14T01:26:36;5.30;;;4.80;;
703;SDS011;335;48.694;9.120;2023-06-14T01:29:02;5.03;;;4.50;;
703;SDS011;335;48.694;9.120;2023-06-14T01:31:28;4.57;;;4.27;;
703;SDS011;335;48.694;9.120;2023-06-14T01:33:54;5.00;;;4.50;;
703;SDS011;335;48.694;9.120;2023-06-14T01:36:20;5.07;;;4.67;;
703;SDS011;335;48.694;9.120;2023-06-14T01:38:46;4.70;;;4.30;;
703;SDS011;335;48.694;9.120;2023-06-14T01:41:13;6.00;;;4.63;;
703;SDS011;335;48.694;9.120;2023-06-14T01:43:40;4.93;;;4.50;;
703;SDS011;335;48.694;9.120;2023-06-14T01:46:06;5.00;;;4.50;;
703;SDS011;335;48.694;9.120;2023-06-14T01:48:32;5.70;;;4.60;;
703;SDS011;335;48.694;9.120;2023-06-14T01:50:57;4.77;;;4.47;;
703;SDS011;335;48.694;9.120;2023-06-14T01:53:22;5.57;;;4.70;;
703;SDS011;335;48.694;9.120;2023-06-14T01:55:48;4.40;;;4.20;;
703;SDS011;335;48.694;9.120;2023-06-14T01:58:14;5.07;;;4.77;;
703;SDS011;335;48.694;9.120;2023-06-14T02:00:41;5.13;;;4.70;;
703;SDS011;335;48.694;9.120;2023-06-14T02:03:08;5.37;;;4.50;;
703;SDS011;335;48.694;9.120;2023-06-14T02:05:34;6.20;;;5.10;;
703;SDS011;335;48.694;9.120;2023-06-14T02:07:59;4.70;;;4.40;;
703;SDS011;335;48.694;9.120;2023-06-14T02:10:25;5.30;;;4.90;;
703;SDS011;335;48.694;9.120;2023-06-14T02:12:50;5.43;;;4.93;;
703;SDS011;335;48.694;9.120;2023-06-14T02:15:16;5.07;;;4.40;;
703;SDS011;335;48.694;9.120;2023-06-14T02:17:44;5.30;;;4.90;;
703;SDS011;335;48.694;9.120;2023-06-14T02:20:12;4.80;;;4.40;;
703;SDS011;335;48.694;9.120;2023-06-14T02:22:37;4.97;;;4.63;;
703;SDS011;335;48.694;9.120;2023-06-14T02:25:03;5.27;;;4.87;;
703;SDS011;335;48.694;9.120;2023-06-14T02:27:28;5.30;;;4.77;;
703;SDS011;335;48.694;9.120;2023-06-14T02:29:54;5.40;;;5.00;;
703;SDS011;335;48.694;9.120;2023-06-14T02:32:19;6.10;;;5.60;;
703;SDS011;335;48.694;9.120;2023-06-14T02:34:44;5.83;;;5.27;;
703;SDS011;335;48.694;9.120;2023-06-14T02:37:14;5.37;;;4.93;;
703;SDS011;335;48.694;9.120;2023-06-14T02:39:40;5.87;;;5.27;;
703;SDS011;335;48.694;9.120;2023-06-14T02:42:05;6.13;;;5.60;;
703;SDS011;335;48.694;9.120;2023-06-14T02:44:31;6.10;;;5.50;;
703;SDS011;335;48.694;9.120;2023-06-14T02:46:57;6.20;;;5.60;;
703;SDS011;335;48.694;9.120;2023-06-14T02:49:23;5.50;;;5.00;;
703;SDS011;335;48.694;9.120;2023-06-14T02:51:49;5.70;;;5.00;;
703;SDS011;335;48.694;9.120;2023-06-14T02:54:14;5.67;;;5.27;;
703;SDS011;335;48.694;9.120;2023-06-14T02:56:39;6.50;;;5.13;;
703;SDS011;335;48.694;9.120;2023-06-14T02:59:05;5.70;;;5.30;;
703;SDS011;335;48.694;9.120;2023-06-14T03:01:32;5.53;;;5.17;;
703;SDS011;335;48.694;9.120;2023-06-14T03:04:03;6.30;;;5.70;;
703;SDS011;335;48.694;9.120;2023-06-14T03:06:29;5.33;;;4.93;;
703;SDS011;335;48.694;9.120;2023-06-14T03:08:58;6.70;;;5.30;;
703;SDS011;335;48.694;9.120;2023-06-14T03:11:29;5.77;;;5.10;;
703;SDS011;335;48.694;9.120;2023-06-14T03:13:55;5.73;;;5.23;;
703;SDS011;335;48.694;9.120;2023-06-14T03:16:21;6.50;;;5.90;;
703;SDS011;335;48.694;9.120;2023-06-14T03:18:49;5.93;;;5.43;;
703;SDS011;335;48.694;9.120;2023-06-14T03:21:15;6.97;;;5.47;;
703;SDS011;335;48.694;9.120;2023-06-14T03:23:41;6.40;;;5.60;;
703;SDS011;335;48.694;9.120;2023-06-14T03:26:07;4.83;;;4.53;;
703;SDS011;335;48.694;9.120;2023-06-14T03:28:33;6.93;;;5.30;;
703;SDS011;335;48.694;9.120;2023-06-14T03:30:58;6.20;;;5.70;;
703;SDS011;335;48.694;9.120;2023-06-14T03:33:23;5.90;;;5.40;;
703;SDS011;335;48.694;9.120;2023-06-14T03:35:50;5.20;;;4.90;;
703;SDS011;335;48.694;9.120;2023-06-14T03:38:15;4.53;;;4.23;;
703;SDS011;335;48.694;9.120;2023-06-14T03:40:41;5.40;;;5.00;;
703;SDS011;335;48.694;9.120;2023-06-14T03:43:06;5.27;;;4.83;;
703;SDS011;335;48.694;9.120;2023-06-14T03:45:31;5.60;;;5.20;;
703;SDS011;335;48.694;9.120;2023-06-14T03:47:57;5.57;;;5.13;;
703;SDS011;335;48.694;9.120;2023-06-14T03:50:23;6.33;;;5.70;;
703;SDS011;335;48.694;9.120;2023-06-14T03:52:48;5.23;;;4.83;;
703;SDS011;335;48.694;9.120;2023-06-14T03:55:14;5.87;;;5.27;;
703;SDS011;335;48.694;9.120;2023-06-14T03:57:41;5.90;;;5.40;;
703;SDS011;335;48.694;9.120;2023-06-14T04:00:07;6.00;;;5.50;;
703;SDS011;335;48.694;9.120;2023-06-14T04:02:33;5.30;;;4.90;;
703;SDS011;335;48.694;9.120;2023-06-14T04:04:59;5.73;;;5.33;;
703;SDS011;335;48.694;9.120;2023-06-14T04:07:25;5.97;;;5.47;;
703;SDS011;335;48.694;9.120;2023-06-14T04:09:53;6.20;;;5.27;;
703;SDS011;335;48.694;9.120;2023-06-14T04:12:18;5.70;;;5.20;;
703;SDS011;335;48.694;9.120;2023-06-14T04:14:43;5.27;;;4.80;;
703;SDS011;335;48.694;9.120;2023-06-14T04:17:09;5.73;;;5.23;;
703;SDS011;335;48.694;9.120;2023-06-14T04:19:34;5.50;;;5.00;;
703;SDS011;335;48.694;9.120;2023-06-14T04:22:00;5.53;;;5.13;;
703;SDS011;335;48.694;9.120;2023-06-14T04:24:26;4.60;;;4.30;;
703;SDS011;335;48.694;9.120;2023-06-14T04:26:57;5.77;;;5.30;;
703;SDS011;335;48.694;9.120;2023-06-14T04:29:26;4.60;;;4.30;;
703;SDS011;335;48.694;9.120;2023-06-14T04:31:53;7.73;;;5.00;;
703;SDS011;335;48.694;9.120;2023-06-14T04:34:19;6.47;;;5.60;;
703;SDS011;335;48.694;9.120;2023-06-14T04:36:46;7.00;;;5.43;;
703;SDS011;335;48.694;9.120;2023-06-14T04:39:18;5.30;;;4.90;;
703;SDS011;335;48.694;9.120;2023-06-14T04:41:45;5.23;;;4.90;;
703;SDS011;335;48.694;9.120;2023-06-14T04:44:11;5.77;;;5.27;;
703;SDS011;335;48.694;9.120;2023-06-14T04:46:37;5.63;;;5.23;;
703;SDS011;335;48.694;9.120;2023-06-14T04:49:10;4.90;;;4.50;;
703;SDS011;335;48.694;9.120;2023-06-14T04:51:39;5.73;;;5.13;;
703;SDS011;335;48.694;9.120;2023-06-14T04:54:08;7.00;;;5.37;;
703;SDS011;335;48.694;9.120;2023-06-14T04:56:43;5.20;;;4.70;;
703;SDS011;335;48.694;9.120;2023-06-14T04:59:10;5.40;;;5.00;;
703;SDS011;335;48.694;9.120;2023-06-14T05:01:36;5.43;;;4.93;;
703;SDS011;335;48.694;9.120;2023-06-14T05:04:02;5.33;;;4.93;;
703;SDS011;335;48.694;9.120;2023-06-14T05:06:28;6.23;;;4.53;;
703;SDS011;335;48.694;9.120;2023-06-14T05:08:54;4.73;;;4.40;;
703;SDS011;335;48.694;9.120;2023-06-14T05:11:19;4.77;;;4.37;;
703;SDS011;335;48.694;9.120;2023-06-14T05:13:45;8.13;;;5.17;;
703;SDS011;335;48.694;9.120;2023-06-14T05:16:11;7.13;;;5.20;;
703;SDS011;335;48.694;9.120;2023-06-14T05:18:37;5.40;;;5.00;;
703;SDS011;335;48.694;9.120;2023-06-14T05:21:03;5.40;;;4.90;;
703;SDS011;335;48.694;9.120;2023-06-14T05:23:30;5.67;;;5.10;;
703;SDS011;335;48.694;9.120;2023-06-14T05:25:55;5.33;;;4.93;;
703;SDS011;335;48.694;9.120;2023-06-14T05:28:21;5.97;;;4.90;;
703;SDS011;335;48.694;9.120;2023-06-14T05:30:47;6.43;;;4.70;;
703;SDS011;335;48.694;9.120;2023-06-14T05:33:12;6.50;;;4.83;;
703;SDS011;335;48.694;9.120;2023-06-14T05:35:38;6.27;;;5.27;;
703;SDS011;335;48.694;9.120;2023-06-14T05:38:03;4.90;;;4.60;;
703;SDS011;335;48.694;9.120;2023-06-14T05:40:28;5.07;;;4.57;;
703;SDS011;335;48.694;9.120;2023-06-14T05:42:54;5.00;;;4.60;;
703;SDS011;335;48.694;9.120;2023-06-14T05:45:19;5.50;;;4.30;;
703;SDS011;335;48.694;9.120;2023-06-14T05:47:45;6.10;;;4.67;;
703;SDS011;335;48.694;9.120;2023-06-14T05:50:10;4.80;;;4.50;;
703;SDS011;335;48.694;9.120;2023-06-14T05:52:35;4.97;;;4.57;;
703;SDS011;335;48.694;9.120;2023-06-14T05:55:02;5.00;;;4.60;;
703;SDS011;335;48.694;9.120;2023-06-14T05:57:28;5.60;;;5.20;;
703;SDS011;335;48.694;9.120;2023-06-14T05:59:53;6.53;;;4.57;;
703;SDS011;335;48.694;9.120;2023-06-14T06:02:19;5.83;;;4.77;;
703;SDS011;335;48.694;9.120;2023-06-14T06:04:44;6.40;;;5.30;;
703;SDS011;335;48.694;9.120;2023-06-14T06:07:10;5.67;;;5.17;;
703;SDS011;335;48.694;9.120;2023-06-14T06:09:35;4.83;;;4.50;;
703;SDS011;335;48.694;9.120;2023-06-14T06:12:00;4.20;;;3.90;;
703;SDS011;335;48.694;9.120;2023-06-14T06:14:26;5.27;;;4.53;;
703;SDS011;335;48.694;9.120;2023-06-14T06:16:51;5.40;;;5.00;;
703;SDS011;335;48.694;9.120;2023-06-14T06:19:18;5.53;;;5.00;;
703;SDS011;335;48.694;9.120;2023-06-14T06:21:43;5.27;;;4.87;;
703;SDS011;335;48.694;9.120;2023-06-14T06:24:08;6.00;;;4.37;;
703;SDS011;335;48.694;9.120;2023-06-14T06:26:34;5.10;;;4.70;;
703;SDS011;335;48.694;9.120;2023-06-14T06:28:59;5.20;;;4.77;;
703;SDS011;335;48.694;9.120;2023-06-14T06:31:25;5.00;;;4.70;;
703;SDS011;335;48.694;9.120;2023-06-14T06:33:52;5.50;;;5.10;;
703;SDS011;335;48.694;9.120;2023-06-14T06:36:18;4.60;;;4.30;;
703;SDS011;335;48.694;9.120;2023-06-14T06:38:45;7.50;;;5.27;;
703;SDS011;335;48.694;9.120;2023-06-14T06:41:10;5.73;;;4.77;;
703;SDS011;335;48.694;9.120;2023-06-14T06:43:35;6.00;;;5.40;;
703;SDS011;335;48.694;9.120;2023-06-14T06:46:01;6.20;;;5.17;;
703;SDS011;335;48.694;9.120;2023-06-14T06:48:26;8.10;;;4.90;;
703;SDS011;335;48.694;9.120;2023-06-14T06:50:51;11.93;;;5.67;;
703;SDS011;335;48.694;9.120;2023-06-14T06:53:17;5.23;;;4.93;;
703;SDS011;335;48.694;9.120;2023-06-14T06:55:43;6.00;;;5.40;;
703;SDS011;335;48.694;9.120;2023-06-14T06:58:09;5.50;;;5.10;;
703;SDS011;335;48.694;9.120;2023-06-14T07:00:34;5.83;;;4.43;;
703;SDS011;335;48.694;9.120;2023-06-14T07:03:00;4.70;;;4.40;;
703;SDS011;335;48.694;9.120;2023-06-14T07:05:26;4.80;;;4.50;;
703;SDS011;335;48.694;9.120;2023-06-14T07:07:51;9.90;;;4.63;;
703;SDS011;335;48.694;9.120;2023-06-14T07:10:16;4.63;;;4.30;;
703;SDS011;335;48.694;9.120;2023-06-14T07:12:42;5.03;;;4.60;;
703;SDS011;335;48.694;9.120;2023-06-14T07:15:07;4.07;;;3.87;;
703;SDS011;335;48.694;9.120;2023-06-14T07:17:33;4.27;;;3.97;;
703;SDS011;335;48.694;9.120;2023-06-14T07:19:59;3.77;;;3.53;;
703;SDS011;335;48.694;9.120;2023-06-14T07:22:25;4.30;;;3.83;;
703;SDS011;335;48.694;9.120;2023-06-14T07:24:51;4.10;;;3.70;;
703;SDS011;335;48.694;9.120;2023-06-14T07:27:16;4.87;;;4.30;;
703;SDS011;335;48.694;9.120;2023-06-14T07:29:42;4.97;;;4.57;;
703;SDS011;335;48.694;9.120;2023-06-14T07:32:07;5.47;;;4.87;;
703;SDS011;335;48.694;9.120;2023-06-14T07:34:32;4.80;;;4.50;;
703;SDS011;335;48.694;9.120;2023-06-14T07:36:58;4.93;;;4.57;;
703;SDS011;335;48.694;9.120;2023-06-14T07:39:23;5.07;;;4.70;;
703;SDS011;335;48.694;9.120;2023-06-14T07:41:48;5.40;;;5.00;;
703;SDS011;335;48.694;9.120;2023-06-14T07:44:14;6.37;;;4.50;;
703;SDS011;335;48.694;9.120;2023-06-14T07:46:40;5.97;;;5.23;;
703;SDS011;335;48.694;9.120;2023-06-14T07:49:06;4.87;;;4.57;;
703;SDS011;335;48.694;9.120;2023-06-14T07:51:32;4.60;;;4.20;;
703;SDS011;335;48.694;9.120;2023-06-14T07:53:58;4.13;;;3.87;;
703;SDS011;335;48.694;9.120;2023-06-14T07:56:25;6.37;;;4.40;;
703;SDS011;335;48.694;9.120;2023-06-14T07:58:51;5.50;;;5.00;;
703;SDS011;335;48.694;9.120;2023-06-14T08:01:16;7.00;;;4.53;;
703;SDS011;335;48.694;9.120;2023-06-14T08:03:42;4.53;;;4.23;;
703;SDS011;335;48.694;9.120;2023-06-14T08:06:07;6.43;;;4.30;;
703;SDS011;335;48.694;9.120;2023-06-14T08:08:32;5.77;;;5.07;;
703;SDS011;335;48.694;9.120;2023-06-14T08:10:58;5.57;;;5.07;;
703;SDS011;335;48.694;9.120;2023-06-14T08:13:23;4.33;;;4.00;;
703;SDS011;335;48.694;9.120;2023-06-14T08:15:48;4.87;;;4.20;;
703;SDS011;335;48.694;9.120;2023-06-14T08:18:14;5.07;;;4.67;;
703;SDS011;335;48.694;9.120;2023-06-14T08:20:39;4.67;;;4.37;;
703;SDS011;335;48.694;9.120;2023-06-14T08:23:05;5.93;;;4.50;;
703;SDS011;335;48.694;9.120;2023-06-14T08:25:30;4.83;;;4.37;;
703;SDS011;335;48.694;9.120;2023-06-14T08:27:56;4.27;;;4.07;;
703;SDS011;335;48.694;9.120;2023-06-14T08:30:21;4.43;;;4.13;;
703;SDS011;335;48.694;9.120;2023-06-14T08:32:47;4.40;;;4.00;;
703;SDS011;335;48.694;9.120;2023-06-14T08:35:12;4.50;;;3.90;;
703;SDS011;335;48.694;9.120;2023-06-14T08:37:41;4.47;;;4.07;;
703;SDS011;335;48.694;9.120;2023-06-14T08:40:12;5.60;;;4.43;;
703;SDS011;335;48.694;9.120;2023-06-14T08:42:51;4.37;;;4.10;;
703;SDS011;335;48.694;9.120;2023-06-14T08:45:18;5.00;;;4.60;;
703;SDS011;335;48.694;9.120;2023-06-14T08:47:45;4.80;;;4.33;;
703;SDS011;335;48.694;9.120;2023-06-14T08:50:11;5.47;;;5.00;;
703;SDS011;335;48.694;9.120;2023-06-14T08:52:38;4.30;;;4.00;;
703;SDS011;335;48.694;9.120;2023-06-14T08:55:10;5.20;;;3.70;;
703;SDS011;335;48.694;9.120;2023-06-14T08:57:36;4.30;;;4.00;;
703;SDS011;335;48.694;9.120;2023-06-14T09:00:03;4.37;;;4.07;;
703;SDS011;335;48.694;9.120;2023-06-14T09:02:38;4.40;;;4.10;;
703;SDS011;335;48.694;9.120;2023-06-14T09:05:08;3.43;;;3.30;;
703;SDS011;335;48.694;9.120;2023-06-14T09:07:33;4.70;;;4.30;;
703;SDS011;335;48.694;9.120;2023-06-14T09:10:06;4.07;;;3.87;;
703;SDS011;335;48.694;9.120;2023-06-14T09:12:39;5.50;;;3.70;;
703;SDS011;335;48.694;9.120;2023-06-14T09:15:05;3.37;;;3.27;;
703;SDS011;335;48.694;9.120;2023-06-14T09:17:40;7.07;;;4.27;;
703;SDS011;335;48.694;9.120;2023-06-14T09:20:06;4.17;;;3.80;;
703;SDS011;335;48.694;9.120;2023-06-14T09:22:38;4.37;;;4.17;;
703;SDS011;335;48.694;9.120;2023-06-14T09:25:04;4.60;;;3.70;;
703;SDS011;335;48.694;9.120;2023-06-14T09:27:30;4.00;;;3.70;;
703;SDS011;335;48.694;9.120;2023-06-14T09:29:55;4.23;;;4.03;;
703;SDS011;335;48.694;9.120;2023-06-14T09:32:21;4.77;;;4.33;;
703;SDS011;335;48.694;9.120;2023-06-14T09:34:47;3.77;;;3.57;;
703;SDS011;335;48.694;9.120;2023-06-14T09:37:12;4.00;;;3.80;;
703;SDS011;335;48.694;9.120;2023-06-14T09:39:50;3.70;;;3.50;;
703;SDS011;335;48.694;9.120;2023-06-14T09:42:19;3.57;;;3.27;;
703;SDS011;335;48.694;9.120;2023-06-14T09:44:48;3.77;;;3.50;;
703;SDS011;335;48.694;9.120;2023-06-14T09:47:15;3.80;;;3.50;;
703;SDS011;335;48.694;9.120;2023-06-14T09:49:40;3.70;;;3.40;;
703;SDS011;335;48.694;9.120;2023-06-14T09:52:06;4.40;;;3.57;;
703;SDS011;335;48.694;9.120;2023-06-14T09:54:32;3.93;;;3.43;;
703;SDS011;335;48.694;9.120;2023-06-14T09:56:59;3.53;;;2.70;;
703;SDS011;335;48.694;9.120;2023-06-14T09:59:26;3.13;;;2.93;;
703;SDS011;335;48.694;9.120;2023-06-14T10:01:57;2.93;;;2.73;;
703;SDS011;335;48.694;9.120;2023-06-14T10:04:24;3.13;;;2.93;;
703;SDS011;335;48.694;9.120;2023-06-14T10:06:50;3.80;;;3.33;;
703;SDS011;335;48.694;9.120;2023-06-14T10:09:16;3.93;;;3.43;;
703;SDS011;335;48.694;9.120;2023-06-14T10:11:41;3.97;;;3.57;;
703;SDS011;335;48.694;9.120;2023-06-14T10:14:09;3.63;;;3.40;;
703;SDS011;335;48.694;9.120;2023-06-14T10:16:38;3.67;;;3.47;;
703;SDS011;335;48.694;9.120;2023-06-14T10:19:13;3.67;;;3.37;;
703;SDS011;335;48.694;9.120;2023-06-14T10:24:43;3.37;;;3.07;;
703;SDS011;335;48.694;9.120;2023-06-14T10:27:09;3.43;;;3.17;;
703;SDS011;335;48.694;9.120;2023-06-14T10:30:21;4.73;;;3.50;;
703;SDS011;335;48.694;9.120;2023-06-14T10:32:21;3.47;;;3.20;;
703;SDS011;335;48.694;9.120;2023-06-14T10:35:08;3.63;;;3.30;;
703;SDS011;335;48.694;9.120;2023-06-14T10:37:34;3.87;;;3.50;;
703;SDS011;335;48.694;9.120;2023-06-14T10:40:00;3.23;;;3.13;;
703;SDS011;335;48.694;9.120;2023-06-14T10:42:32;3.77;;;3.47;;
703;SDS011;335;48.694;9.120;2023-06-14T10:44:58;3.90;;;3.60;;
703;SDS011;335;48.694;9.120;2023-06-14T10:47:33;4.00;;;3.70;;
703;SDS011;335;48.694;9.120;2023-06-14T10:52:32;5.93;;;3.23;;
703;SDS011;335;48.694;9.120;2023-06-14T10:55:07;4.57;;;3.70;;
703;SDS011;335;48.694;9.120;2023-06-14T10:57:40;4.03;;;3.73;;
703;SDS011;335;48.694;9.120;2023-06-14T11:00:24;4.17;;;3.87;;
703;SDS011;335;48.694;9.120;2023-06-14T11:05:45;4.50;;;4.10;;
703;SDS011;335;48.694;9.120;2023-06-14T11:08:17;3.80;;;3.53;;
703;SDS011;335;48.694;9.120;2023-06-14T11:10:54;4.60;;;4.30;;
703;SDS011;335;48.694;9.120;2023-06-14T11:13:24;4.50;;;4.20;;
703;SDS011;335;48.694;9.120;2023-06-14T11:15:50;4.50;;;4.30;;
703;SDS011;335;48.694;9.120;2023-06-14T11:18:17;4.33;;;4.07;;
703;SDS011;335;48.694;9.120;2023-06-14T11:20:45;7.80;;;4.07;;
703;SDS011;335;48.694;9.120;2023-06-14T11:23:11;3.67;;;3.47;;
703;SDS011;335;48.694;9.120;2023-06-14T11:25:36;4.20;;;3.90;;
703;SDS011;335;48.694;9.120;2023-06-14T11:28:02;3.50;;;3.00;;
703;SDS011;335;48.694;9.120;2023-06-14T11:30:27;3.40;;;3.20;;
703;SDS011;335;48.694;9.120;2023-06-14T11:32:53;4.53;;;4.13;;
703;SDS011;335;48.694;9.120;2023-06-14T11:35:19;4.50;;;3.30;;
703;SDS011;335;48.694;9.120;2023-06-14T11:37:48;3.63;;;3.43;;
703;SDS011;335;48.694;9.120;2023-06-14T11:40:14;4.33;;;3.53;;
703;SDS011;335;48.694;9.120;2023-06-14T11:42:40;3.60;;;3.30;;
703;SDS011;335;48.694;9.120;2023-06-14T11:45:09;3.57;;;3.37;;
703;SDS011;335;48.694;9.120;2023-06-14T11:47:36;3.80;;;3.20;;
703;SDS011;335;48.694;9.120;2023-06-14T11:50:02;3.50;;;3.30;;
703;SDS011;335;48.694;9.120;2023-06-14T11:52:28;3.83;;;3.50;;
703;SDS011;335;48.694;9.120;2023-06-14T11:54:54;5.47;;;5.00;;
703;SDS011;335;48.694;9.120;2023-06-14T11:57:20;4.90;;;4.50;;
703;SDS011;335;48.694;9.120;2023-06-14T11:59:45;4.07;;;3.77;;
703;SDS011;335;48.694;9.120;2023-06-14T12:02:14;4.03;;;3.57;;
703;SDS011;335;48.694;9.120;2023-06-14T12:04:40;3.77;;;3.50;;
703;SDS011;335;48.694;9.120;2023-06-14T12:07:10;3.77;;;3.47;;
703;SDS011;335;48.694;9.120;2023-06-14T12:12:23;2.80;;;2.60;;
703;SDS011;335;48.694;9.120;2023-06-14T12:14:51;3.30;;;3.00;;
703;SDS011;335;48.694;9.120;2023-06-14T12:17:18;3.10;;;3.00;;
703;SDS011;335;48.694;9.120;2023-06-14T12:19:44;3.23;;;3.03;;
703;SDS011;335;48.694;9.120;2023-06-14T12:22:11;3.67;;;3.27;;
703;SDS011;335;48.694;9.120;2023-06-14T12:24:37;4.00;;;3.10;;
703;SDS011;335;48.694;9.120;2023-06-14T12:27:06;3.07;;;2.93;;
703;SDS011;335;48.694;9.120;2023-06-14T12:29:31;3.50;;;3.20;;
703;SDS011;335;48.694;9.120;2023-06-14T12:31:57;3.60;;;3.40;;
703;SDS011;335;48.694;9.120;2023-06-14T12:34:23;3.43;;;3.13;;
703;SDS011;335;48.694;9.120;2023-06-14T12:36:52;3.00;;;2.80;;
703;SDS011;335;48.694;9.120;2023-06-14T12:39:18;3.77;;;3.47;;
703;SDS011;335;48.694;9.120;2023-06-14T12:41:44;3.93;;;3.63;;
703;SDS011;335;48.694;9.120;2023-06-14T12:44:10;3.07;;;2.87;;
703;SDS011;335;48.694;9.120;2023-06-14T12:46:36;2.80;;;2.70;;
703;SDS011;335;48.694;9.120;2023-06-14T12:49:01;3.77;;;2.87;;
703;SDS011;335;48.694;9.120;2023-06-14T12:51:27;3.30;;;3.10;;
703;SDS011;335;48.694;9.120;2023-06-14T12:53:52;2.97;;;2.77;;
703;SDS011;335;48.694;9.120;2023-06-14T12:56:17;3.13;;;3.03;;
703;SDS011;335;48.694;9.120;2023-06-14T12:58:43;3.17;;;2.97;;
703;SDS011;335;48.694;9.120;2023-06-14T13:01:08;3.27;;;3.10;;
703;SDS011;335;48.694;9.120;2023-06-14T13:03:33;2.93;;;2.73;;
703;SDS011;335;48.694;9.120;2023-06-14T13:05:59;3.50;;;2.80;;
703;SDS011;335;48.694;9.120;2023-06-14T13:08:25;3.03;;;2.80;;
703;SDS011;335;48.694;9.120;2023-06-14T13:10:51;3.60;;;3.40;;
703;SDS011;335;48.694;9.120;2023-06-14T13:13:16;3.50;;;3.23;;
703;SDS011;335;48.694;9.120;2023-06-14T13:15:41;3.77;;;3.47;;
703;SDS011;335;48.694;9.120;2023-06-14T13:18:07;3.80;;;3.60;;
703;SDS011;335;48.694;9.120;2023-06-14T13:20:33;5.40;;;3.30;;
703;SDS011;335;48.694;9.120;2023-06-14T13:22:58;3.93;;;3.73;;
703;SDS011;335;48.694;9.120;2023-06-14T13:25:24;4.50;;;4.20;;
703;SDS011;335;48.694;9.120;2023-06-14T13:27:49;3.93;;;3.63;;
703;SDS011;335;48.694;9.120;2023-06-14T13:30:15;4.40;;;4.10;;
703;SDS011;335;48.694;9.120;2023-06-14T13:32:40;4.30;;;4.00;;
703;SDS011;335;48.694;9.120;2023-06-14T13:35:06;3.70;;;3.50;;
703;SDS011;335;48.694;9.120;2023-06-14T13:37:31;3.80;;;3.57;;
703;SDS011;335;48.694;9.120;2023-06-14T13:39:56;4.43;;;3.57;;
703;SDS011;335;48.694;9.120;2023-06-14T13:42:22;3.93;;;3.40;;
703;SDS011;335;48.694;9.120;2023-06-14T13:44:47;4.07;;;3.40;;
703;SDS011;335;48.694;9.120;2023-06-14T13:47:12;4.10;;;3.80;;
703;SDS011;335;48.694;9.120;2023-06-14T13:49:38;4.73;;;3.67;;
703;SDS011;335;48.694;9.120;2023-06-14T13:52:03;4.00;;;3.70;;
703;SDS011;335;48.694;9.120;2023-06-14T13:54:29;3.67;;;3.50;;
703;SDS011;335;48.694;9.120;2023-06-14T13:56:54;3.60;;;3.40;;
703;SDS011;335;48.694;9.120;2023-06-14T13:59:20;3.90;;;3.63;;
703;SDS011;335;48.694;9.120;2023-06-14T14:01:45;3.60;;;3.30;;
703;SDS011;335;48.694;9.120;2023-06-14T14:04:10;3.23;;;3.03;;
703;SDS011;335;48.694;9.120;2023-06-14T14:06:36;3.13;;;3.03;;
703;SDS011;335;48.694;9.120;2023-06-14T14:09:01;4.00;;;3.80;;
703;SDS011;335;48.694;9.120;2023-06-14T14:11:27;6.77;;;4.07;;
703;SDS011;335;48.694;9.120;2023-06-14T14:13:53;4.17;;;3.47;;
703;SDS011;335;48.694;9.120;2023-06-14T14:16:18;3.67;;;3.40;;
703;SDS011;335;48.694;9.120;2023-06-14T14:18:45;4.27;;;3.50;;
703;SDS011;335;48.694;9.120;2023-06-14T14:21:10;4.10;;;3.70;;
703;SDS011;335;48.694;9.120;2023-06-14T14:23:36;3.80;;;3.60;;
703;SDS011;335;48.694;9.120;2023-06-14T14:26:01;4.93;;;4.03;;
703;SDS011;335;48.694;9.120;2023-06-14T14:28:29;4.60;;;4.20;;
703;SDS011;335;48.694;9.120;2023-06-14T14:30:55;3.97;;;3.30;;
703;SDS011;335;48.694;9.120;2023-06-14T14:33:20;4.70;;;4.30;;
703;SDS011;335;48.694;9.120;2023-06-14T14:35:46;4.23;;;3.83;;
703;SDS011;335;48.694;9.120;2023-06-14T14:38:11;4.03;;;3.83;;
703;SDS011;335;48.694;9.120;2023-06-14T14:40:37;4.30;;;4.00;;
703;SDS011;335;48.694;9.120;2023-06-14T14:43:03;6.83;;;4.17;;
703;SDS011;335;48.694;9.120;2023-06-14T14:45:28;4.63;;;3.33;;
703;SDS011;335;48.694;9.120;2023-06-14T14:47:54;4.23;;;3.93;;
703;SDS011;335;48.694;9.120;2023-06-14T14:50:19;3.60;;;3.37;;
703;SDS011;335;48.694;9.120;2023-06-14T14:52:44;3.60;;;3.40;;
703;SDS011;335;48.694;9.120;2023-06-14T14:55:10;3.77;;;3.47;;
703;SDS011;335;48.694;9.120;2023-06-14T14:57:36;3.40;;;3.20;;
703;SDS011;335;48.694;9.120;2023-06-14T15:00:02;3.97;;;3.67;;
703;SDS011;335;48.694;9.120;2023-06-14T15:02:28;3.77;;;3.47;;
703;SDS011;335;48.694;9.120;2023-06-14T15:04:53;6.50;;;3.83;;
703;SDS011;335;48.694;9.120;2023-06-14T15:07:19;4.40;;;4.10;;
703;SDS011;335;48.694;9.120;2023-06-14T15:09:44;5.13;;;3.70;;
703;SDS011;335;48.694;9.120;2023-06-14T15:12:10;5.50;;;3.73;;
703;SDS011;335;48.694;9.120;2023-06-14T15:14:35;3.70;;;3.50;;
703;SDS011;335;48.694;9.120;2023-06-14T15:17:01;3.93;;;3.63;;
703;SDS011;335;48.694;9.120;2023-06-14T15:19:27;3.73;;;3.53;;
703;SDS011;335;48.694;9.120;2023-06-14T15:21:53;4.53;;;4.23;;
703;SDS011;335;48.694;9.120;2023-06-14T15:24:18;3.97;;;3.73;;
703;SDS011;335;48.694;9.120;2023-06-14T15:26:45;5.80;;;3.90;;
703;SDS011;335;48.694;9.120;2023-06-14T15:29:10;3.97;;;3.77;;
703;SDS011;335;48.694;9.120;2023-06-14T15:31:35;3.87;;;3.67;;
703;SDS011;335;48.694;9.120;2023-06-14T15:34:01;4.33;;;3.93;;
703;SDS011;335;48.694;9.120;2023-06-14T15:36:26;4.47;;;4.17;;
703;SDS011;335;48.694;9.120;2023-06-14T15:38:51;4.07;;;3.67;;
703;SDS011;335;48.694;9.120;2023-06-14T15:41:17;3.80;;;3.60;;
703;SDS011;335;48.694;9.120;2023-06-14T15:43:42;3.80;;;3.50;;
703;SDS011;335;48.694;9.120;2023-06-14T15:46:07;4.57;;;4.10;;
703;SDS011;335;48.694;9.120;2023-06-14T15:48:33;4.67;;;3.70;;
703;SDS011;335;48.694;9.120;2023-06-14T15:50:58;4.00;;;3.70;;
703;SDS011;335;48.694;9.120;2023-06-14T15:53:23;4.20;;;3.90;;
703;SDS011;335;48.694;9.120;2023-06-14T15:55:48;4.40;;;4.20;;